UPDATE 02.09.20 Die Stationsgrafiken wurden erweitert. Temperaturgrafik und Regentage unter Almanach -> Seperate Stationsgrafiken -> Temperatur
Besuchen Sie den Menüpunkt "Almanach / History" WU-Grafiken um Wetterdaten über die Jahre zu vergleichen!
Die Daten stammen von meiner Wetterstation und wurden von Weatherunderground aufgezeichnet.

Rindlberg West Mehr Informationen Rindlberg West


Stuetzi - Rindlberg Ost Mehr Informationen Stuetzi - Rindlberg Ost


Regenradar Mehr Informationen rain snow radar


Sie finden meine Wetter-Infos auch auf:

Weather Underground

AWEKAS



METAR-Meldungen aus der Umgebung

   
LOWL - Linz
Aktualisierung: 01-10-2020 20:20
Klar  
Klar  
   Wind: variiert 3.7 km/h
Wind: variiert 3.7 km/h
Temperatur: 13°C
Taupunkt: 10°C
Luftfeuchte: 82%
Luftdruck: 1005 hPa
Wolken: Klar
Sichtbarkeit: Mehr als 10 km
Bewölkung: Klar
LOWL 011820Z AUTO VRB02KT 9999 NCD 13/10 Q1005 NOSIG
LOWW - Vienna
Aktualisierung: 01-10-2020 20:20
Klar  
Klar  
   Wind: variiert 3.7 km/h
Wind: variiert 3.7 km/h
Temperatur: 13°C
Taupunkt: 10°C
Luftfeuchte: 82%
Luftdruck: 1005 hPa
Sichtbarkeit: Mehr als 10 km
Bewölkung: Klar
LOWW 011820Z VRB02KT CAVOK 13/10 Q1005 NOSIG
 

Script entwickelt von  Saratoga-weather.org Angepasst für das Template von  Weerstation Leuven